sensor_id;sensor_type;location;lat;lon;timestamp;temperature;humidity
68813;DHT22;55808;48.112;11.552;2023-04-16T00:00:36;5.00;99.90
68813;DHT22;55808;48.112;11.552;2023-04-16T00:03:02;4.50;99.90
68813;DHT22;55808;48.112;11.552;2023-04-16T00:05:27;4.60;99.90
68813;DHT22;55808;48.112;11.552;2023-04-16T00:07:53;4.80;99.90
68813;DHT22;55808;48.112;11.552;2023-04-16T00:10:18;6.80;99.90
68813;DHT22;55808;48.112;11.552;2023-04-16T00:12:44;5.90;99.90
68813;DHT22;55808;48.112;11.552;2023-04-16T00:15:10;4.50;99.90
68813;DHT22;55808;48.112;11.552;2023-04-16T00:17:35;4.50;99.90
68813;DHT22;55808;48.112;11.552;2023-04-16T00:20:01;4.60;99.90
68813;DHT22;55808;48.112;11.552;2023-04-16T00:22:26;4.50;99.90
68813;DHT22;55808;48.112;11.552;2023-04-16T00:24:52;5.40;99.90
68813;DHT22;55808;48.112;11.552;2023-04-16T00:27:18;5.10;99.90
68813;DHT22;55808;48.112;11.552;2023-04-16T00:29:43;4.50;99.90
68813;DHT22;55808;48.112;11.552;2023-04-16T00:32:09;4.50;99.90
68813;DHT22;55808;48.112;11.552;2023-04-16T00:34:34;4.60;99.90
68813;DHT22;55808;48.112;11.552;2023-04-16T00:37:00;4.50;99.90
68813;DHT22;55808;48.112;11.552;2023-04-16T00:39:25;4.50;99.90
68813;DHT22;55808;48.112;11.552;2023-04-16T00:41:51;6.00;99.90
68813;DHT22;55808;48.112;11.552;2023-04-16T00:44:16;4.50;99.90
68813;DHT22;55808;48.112;11.552;2023-04-16T00:46:42;4.60;99.90
68813;DHT22;55808;48.112;11.552;2023-04-16T00:49:08;4.60;99.90
68813;DHT22;55808;48.112;11.552;2023-04-16T00:51:34;4.50;99.90
68813;DHT22;55808;48.112;11.552;2023-04-16T00:53:59;4.50;99.90
68813;DHT22;55808;48.112;11.552;2023-04-16T00:56:25;4.50;99.90
68813;DHT22;55808;48.112;11.552;2023-04-16T00:58:52;4.50;99.90
68813;DHT22;55808;48.112;11.552;2023-04-16T01:01:18;4.60;99.90
68813;DHT22;55808;48.112;11.552;2023-04-16T01:03:44;4.50;99.90
68813;DHT22;55808;48.112;11.552;2023-04-16T01:06:11;4.60;99.90
68813;DHT22;55808;48.112;11.552;2023-04-16T01:08:36;4.60;99.90
68813;DHT22;55808;48.112;11.552;2023-04-16T01:11:02;4.70;99.90
68813;DHT22;55808;48.112;11.552;2023-04-16T01:13:28;4.70;99.90
68813;DHT22;55808;48.112;11.552;2023-04-16T01:15:54;4.70;99.90
68813;DHT22;55808;48.112;11.552;2023-04-16T01:18:20;4.70;99.90
68813;DHT22;55808;48.112;11.552;2023-04-16T01:20:46;5.50;99.90
68813;DHT22;55808;48.112;11.552;2023-04-16T01:23:12;4.60;99.90
68813;DHT22;55808;48.112;11.552;2023-04-16T01:25:37;4.60;99.90
68813;DHT22;55808;48.112;11.552;2023-04-16T01:28:03;4.70;99.90
68813;DHT22;55808;48.112;11.552;2023-04-16T01:30:29;4.70;99.90
68813;DHT22;55808;48.112;11.552;2023-04-16T01:32:55;4.70;99.90
68813;DHT22;55808;48.112;11.552;2023-04-16T01:35:20;6.90;99.90
68813;DHT22;55808;48.112;11.552;2023-04-16T01:37:46;5.00;99.90
68813;DHT22;55808;48.112;11.552;2023-04-16T01:40:13;4.70;99.90
68813;DHT22;55808;48.112;11.552;2023-04-16T01:42:39;4.70;99.90
68813;DHT22;55808;48.112;11.552;2023-04-16T01:45:05;4.70;99.90
68813;DHT22;55808;48.112;11.552;2023-04-16T01:47:30;4.70;99.90
68813;DHT22;55808;48.112;11.552;2023-04-16T01:49:56;4.70;99.90
68813;DHT22;55808;48.112;11.552;2023-04-16T01:52:21;4.70;99.90
68813;DHT22;55808;48.112;11.552;2023-04-16T01:54:47;4.70;99.90
68813;DHT22;55808;48.112;11.552;2023-04-16T01:57:12;4.70;99.90
68813;DHT22;55808;48.112;11.552;2023-04-16T01:59:38;4.70;99.90
68813;DHT22;55808;48.112;11.552;2023-04-16T02:02:08;4.70;99.90
68813;DHT22;55808;48.112;11.552;2023-04-16T02:04:37;4.70;99.90
68813;DHT22;55808;48.112;11.552;2023-04-16T02:07:03;4.70;99.90
68813;DHT22;55808;48.112;11.552;2023-04-16T02:09:29;4.70;99.90
68813;DHT22;55808;48.112;11.552;2023-04-16T02:11:54;5.50;99.90
68813;DHT22;55808;48.112;11.552;2023-04-16T02:14:20;4.70;99.90
68813;DHT22;55808;48.112;11.552;2023-04-16T02:16:47;4.80;99.90
68813;DHT22;55808;48.112;11.552;2023-04-16T02:19:12;4.70;99.90
68813;DHT22;55808;48.112;11.552;2023-04-16T02:21:38;4.70;99.90
68813;DHT22;55808;48.112;11.552;2023-04-16T02:24:03;4.70;99.90
68813;DHT22;55808;48.112;11.552;2023-04-16T02:26:29;4.70;99.90
68813;DHT22;55808;48.112;11.552;2023-04-16T02:28:54;4.80;99.90
68813;DHT22;55808;48.112;11.552;2023-04-16T02:31:20;4.80;99.90
68813;DHT22;55808;48.112;11.552;2023-04-16T02:33:46;4.80;99.90
68813;DHT22;55808;48.112;11.552;2023-04-16T02:36:12;4.80;99.90
68813;DHT22;55808;48.112;11.552;2023-04-16T02:38:37;4.80;99.90
68813;DHT22;55808;48.112;11.552;2023-04-16T02:41:03;4.80;99.90
68813;DHT22;55808;48.112;11.552;2023-04-16T02:43:29;4.80;99.90
68813;DHT22;55808;48.112;11.552;2023-04-16T02:45:54;4.80;99.90
68813;DHT22;55808;48.112;11.552;2023-04-16T02:48:20;4.80;99.90
68813;DHT22;55808;48.112;11.552;2023-04-16T02:50:45;4.80;99.90
68813;DHT22;55808;48.112;11.552;2023-04-16T02:53:11;4.90;99.90
68813;DHT22;55808;48.112;11.552;2023-04-16T02:55:36;4.80;99.90
68813;DHT22;55808;48.112;11.552;2023-04-16T02:58:02;4.80;99.90
68813;DHT22;55808;48.112;11.552;2023-04-16T03:00:27;4.80;99.90
68813;DHT22;55808;48.112;11.552;2023-04-16T03:02:53;4.80;99.90
68813;DHT22;55808;48.112;11.552;2023-04-16T03:05:18;4.80;99.90
68813;DHT22;55808;48.112;11.552;2023-04-16T03:07:44;5.80;99.90
68813;DHT22;55808;48.112;11.552;2023-04-16T03:10:12;4.80;99.90
68813;DHT22;55808;48.112;11.552;2023-04-16T03:12:38;4.80;99.90
68813;DHT22;55808;48.112;11.552;2023-04-16T03:15:03;4.70;99.90
68813;DHT22;55808;48.112;11.552;2023-04-16T03:17:29;4.70;99.90
68813;DHT22;55808;48.112;11.552;2023-04-16T03:19:55;4.70;99.90
68813;DHT22;55808;48.112;11.552;2023-04-16T03:22:20;4.70;99.90
68813;DHT22;55808;48.112;11.552;2023-04-16T03:24:46;4.70;99.90
68813;DHT22;55808;48.112;11.552;2023-04-16T03:27:11;4.70;99.90
68813;DHT22;55808;48.112;11.552;2023-04-16T03:29:37;4.80;99.90
68813;DHT22;55808;48.112;11.552;2023-04-16T03:32:03;4.80;99.90
68813;DHT22;55808;48.112;11.552;2023-04-16T03:34:28;4.80;99.90
68813;DHT22;55808;48.112;11.552;2023-04-16T03:36:54;4.80;99.90
68813;DHT22;55808;48.112;11.552;2023-04-16T03:39:19;4.80;99.90
68813;DHT22;55808;48.112;11.552;2023-04-16T03:41:45;4.80;99.90
68813;DHT22;55808;48.112;11.552;2023-04-16T03:44:10;4.90;99.90
68813;DHT22;55808;48.112;11.552;2023-04-16T03:46:36;4.80;99.90
68813;DHT22;55808;48.112;11.552;2023-04-16T03:49:01;4.80;99.90
68813;DHT22;55808;48.112;11.552;2023-04-16T03:51:27;4.80;99.90
68813;DHT22;55808;48.112;11.552;2023-04-16T03:53:52;4.80;99.90
68813;DHT22;55808;48.112;11.552;2023-04-16T03:56:18;4.80;99.90
68813;DHT22;55808;48.112;11.552;2023-04-16T03:58:43;4.80;99.90
68813;DHT22;55808;48.112;11.552;2023-04-16T04:01:09;4.80;99.90
68813;DHT22;55808;48.112;11.552;2023-04-16T04:03:34;4.70;99.90
68813;DHT22;55808;48.112;11.552;2023-04-16T04:06:00;4.80;99.90
68813;DHT22;55808;48.112;11.552;2023-04-16T04:08:25;4.80;99.90
68813;DHT22;55808;48.112;11.552;2023-04-16T04:10:51;4.80;99.90
68813;DHT22;55808;48.112;11.552;2023-04-16T04:13:17;4.70;99.90
68813;DHT22;55808;48.112;11.552;2023-04-16T04:15:45;5.10;99.90
68813;DHT22;55808;48.112;11.552;2023-04-16T04:18:11;4.70;99.90
68813;DHT22;55808;48.112;11.552;2023-04-16T04:20:39;4.80;99.90
68813;DHT22;55808;48.112;11.552;2023-04-16T04:23:05;4.70;99.90
68813;DHT22;55808;48.112;11.552;2023-04-16T04:25:30;4.70;99.90
68813;DHT22;55808;48.112;11.552;2023-04-16T04:27:56;4.70;99.90
68813;DHT22;55808;48.112;11.552;2023-04-16T04:30:22;4.70;99.90
68813;DHT22;55808;48.112;11.552;2023-04-16T04:32:47;4.70;99.90
68813;DHT22;55808;48.112;11.552;2023-04-16T04:35:13;4.80;99.90
68813;DHT22;55808;48.112;11.552;2023-04-16T04:37:38;4.70;99.90
68813;DHT22;55808;48.112;11.552;2023-04-16T04:40:04;4.90;99.90
68813;DHT22;55808;48.112;11.552;2023-04-16T04:42:29;4.70;99.90
68813;DHT22;55808;48.112;11.552;2023-04-16T04:44:55;4.70;99.90
68813;DHT22;55808;48.112;11.552;2023-04-16T04:47:20;4.70;99.90
68813;DHT22;55808;48.112;11.552;2023-04-16T04:49:46;4.70;99.90
68813;DHT22;55808;48.112;11.552;2023-04-16T04:52:11;4.80;99.90
68813;DHT22;55808;48.112;11.552;2023-04-16T04:54:38;4.70;99.90
68813;DHT22;55808;48.112;11.552;2023-04-16T04:57:06;4.60;99.90
68813;DHT22;55808;48.112;11.552;2023-04-16T04:59:31;4.60;99.90
68813;DHT22;55808;48.112;11.552;2023-04-16T05:01:57;4.60;99.90
68813;DHT22;55808;48.112;11.552;2023-04-16T05:04:22;4.60;99.90
68813;DHT22;55808;48.112;11.552;2023-04-16T05:06:48;4.70;99.90
68813;DHT22;55808;48.112;11.552;2023-04-16T05:09:13;5.90;99.90
68813;DHT22;55808;48.112;11.552;2023-04-16T05:11:40;4.80;99.90
68813;DHT22;55808;48.112;11.552;2023-04-16T05:14:06;4.60;99.90
68813;DHT22;55808;48.112;11.552;2023-04-16T05:16:31;4.80;99.90
68813;DHT22;55808;48.112;11.552;2023-04-16T05:18:57;4.80;99.90
68813;DHT22;55808;48.112;11.552;2023-04-16T05:21:23;4.60;99.90
68813;DHT22;55808;48.112;11.552;2023-04-16T05:23:48;4.70;99.90
68813;DHT22;55808;48.112;11.552;2023-04-16T05:26:14;4.70;99.90
68813;DHT22;55808;48.112;11.552;2023-04-16T05:28:39;4.70;99.90
68813;DHT22;55808;48.112;11.552;2023-04-16T05:31:05;4.70;99.90
68813;DHT22;55808;48.112;11.552;2023-04-16T05:33:30;4.60;99.90
68813;DHT22;55808;48.112;11.552;2023-04-16T05:35:56;4.70;99.90
68813;DHT22;55808;48.112;11.552;2023-04-16T05:38:21;4.90;99.90
68813;DHT22;55808;48.112;11.552;2023-04-16T05:40:47;4.90;99.90
68813;DHT22;55808;48.112;11.552;2023-04-16T05:43:12;4.90;99.90
68813;DHT22;55808;48.112;11.552;2023-04-16T05:45:38;4.90;99.90
68813;DHT22;55808;48.112;11.552;2023-04-16T05:48:08;4.90;99.90
68813;DHT22;55808;48.112;11.552;2023-04-16T05:50:34;4.90;99.90
68813;DHT22;55808;48.112;11.552;2023-04-16T05:53:00;4.90;99.90
68813;DHT22;55808;48.112;11.552;2023-04-16T05:55:27;4.80;99.90
68813;DHT22;55808;48.112;11.552;2023-04-16T05:57:55;4.80;99.90
68813;DHT22;55808;48.112;11.552;2023-04-16T06:00:20;4.90;99.90
68813;DHT22;55808;48.112;11.552;2023-04-16T06:02:46;4.90;99.90
68813;DHT22;55808;48.112;11.552;2023-04-16T06:05:13;4.80;99.90
68813;DHT22;55808;48.112;11.552;2023-04-16T06:07:38;4.80;99.90
68813;DHT22;55808;48.112;11.552;2023-04-16T06:10:04;4.80;99.90
68813;DHT22;55808;48.112;11.552;2023-04-16T06:12:30;4.80;99.90
68813;DHT22;55808;48.112;11.552;2023-04-16T06:14:56;4.90;99.90
68813;DHT22;55808;48.112;11.552;2023-04-16T06:17:22;4.80;99.90
68813;DHT22;55808;48.112;11.552;2023-04-16T06:19:47;4.90;99.90
68813;DHT22;55808;48.112;11.552;2023-04-16T06:22:13;5.00;99.90
68813;DHT22;55808;48.112;11.552;2023-04-16T06:24:38;4.90;99.90
68813;DHT22;55808;48.112;11.552;2023-04-16T06:27:04;5.00;99.90
68813;DHT22;55808;48.112;11.552;2023-04-16T06:29:29;5.00;99.90
68813;DHT22;55808;48.112;11.552;2023-04-16T06:31:55;5.10;99.90
68813;DHT22;55808;48.112;11.552;2023-04-16T06:34:20;5.10;99.90
68813;DHT22;55808;48.112;11.552;2023-04-16T06:36:46;5.20;99.90
68813;DHT22;55808;48.112;11.552;2023-04-16T06:39:13;5.20;99.90
68813;DHT22;55808;48.112;11.552;2023-04-16T06:41:42;5.20;99.90
68813;DHT22;55808;48.112;11.552;2023-04-16T06:44:08;5.30;99.90
68813;DHT22;55808;48.112;11.552;2023-04-16T06:46:33;5.30;99.90
68813;DHT22;55808;48.112;11.552;2023-04-16T06:48:59;5.30;99.90
68813;DHT22;55808;48.112;11.552;2023-04-16T06:51:25;5.40;99.90
68813;DHT22;55808;48.112;11.552;2023-04-16T06:53:50;5.40;99.90
68813;DHT22;55808;48.112;11.552;2023-04-16T06:56:16;5.40;99.90
68813;DHT22;55808;48.112;11.552;2023-04-16T06:58:41;5.40;99.90
68813;DHT22;55808;48.112;11.552;2023-04-16T07:01:07;5.40;99.90
68813;DHT22;55808;48.112;11.552;2023-04-16T07:03:34;5.50;99.90
68813;DHT22;55808;48.112;11.552;2023-04-16T07:06:00;5.50;99.90
68813;DHT22;55808;48.112;11.552;2023-04-16T07:08:26;5.50;99.90
68813;DHT22;55808;48.112;11.552;2023-04-16T07:10:52;5.70;99.90
68813;DHT22;55808;48.112;11.552;2023-04-16T07:13:18;5.60;99.90
68813;DHT22;55808;48.112;11.552;2023-04-16T07:15:43;5.60;99.90
68813;DHT22;55808;48.112;11.552;2023-04-16T07:18:09;5.50;99.90
68813;DHT22;55808;48.112;11.552;2023-04-16T07:20:34;5.60;99.90
68813;DHT22;55808;48.112;11.552;2023-04-16T07:23:00;5.60;99.90
68813;DHT22;55808;48.112;11.552;2023-04-16T07:25:26;5.70;99.90
68813;DHT22;55808;48.112;11.552;2023-04-16T07:27:51;5.70;99.90
68813;DHT22;55808;48.112;11.552;2023-04-16T07:30:17;5.60;99.90
68813;DHT22;55808;48.112;11.552;2023-04-16T07:32:42;5.60;99.90
68813;DHT22;55808;48.112;11.552;2023-04-16T07:35:08;5.60;99.90
68813;DHT22;55808;48.112;11.552;2023-04-16T07:37:33;5.70;99.90
68813;DHT22;55808;48.112;11.552;2023-04-16T07:39:59;6.30;99.90
68813;DHT22;55808;48.112;11.552;2023-04-16T07:42:25;5.70;99.90
68813;DHT22;55808;48.112;11.552;2023-04-16T07:44:51;5.70;99.90
68813;DHT22;55808;48.112;11.552;2023-04-16T07:47:16;5.80;99.90
68813;DHT22;55808;48.112;11.552;2023-04-16T07:49:42;5.80;99.90
68813;DHT22;55808;48.112;11.552;2023-04-16T07:52:08;5.70;99.90
68813;DHT22;55808;48.112;11.552;2023-04-16T07:54:33;5.80;99.90
68813;DHT22;55808;48.112;11.552;2023-04-16T07:56:59;5.90;99.90
68813;DHT22;55808;48.112;11.552;2023-04-16T07:59:24;5.90;99.90
68813;DHT22;55808;48.112;11.552;2023-04-16T08:01:51;5.90;99.90
68813;DHT22;55808;48.112;11.552;2023-04-16T08:04:17;6.00;99.90
68813;DHT22;55808;48.112;11.552;2023-04-16T08:06:48;5.90;99.90
68813;DHT22;55808;48.112;11.552;2023-04-16T08:09:14;6.10;99.90
68813;DHT22;55808;48.112;11.552;2023-04-16T08:11:40;6.10;99.90
68813;DHT22;55808;48.112;11.552;2023-04-16T08:14:05;6.10;99.90
68813;DHT22;55808;48.112;11.552;2023-04-16T08:16:31;6.10;99.90
68813;DHT22;55808;48.112;11.552;2023-04-16T08:18:56;6.20;99.90
68813;DHT22;55808;48.112;11.552;2023-04-16T08:21:22;6.10;99.90
68813;DHT22;55808;48.112;11.552;2023-04-16T08:23:48;6.10;99.90
68813;DHT22;55808;48.112;11.552;2023-04-16T08:26:13;6.20;99.90
68813;DHT22;55808;48.112;11.552;2023-04-16T08:28:39;6.30;99.90
68813;DHT22;55808;48.112;11.552;2023-04-16T08:31:04;6.40;99.90
68813;DHT22;55808;48.112;11.552;2023-04-16T08:33:30;6.50;99.90
68813;DHT22;55808;48.112;11.552;2023-04-16T08:35:55;6.60;99.90
68813;DHT22;55808;48.112;11.552;2023-04-16T08:38:21;6.80;99.90
68813;DHT22;55808;48.112;11.552;2023-04-16T08:40:46;6.70;99.90
68813;DHT22;55808;48.112;11.552;2023-04-16T08:43:12;6.70;99.90
68813;DHT22;55808;48.112;11.552;2023-04-16T08:45:39;6.90;99.90
68813;DHT22;55808;48.112;11.552;2023-04-16T08:48:06;7.00;99.90
68813;DHT22;55808;48.112;11.552;2023-04-16T08:50:31;7.00;99.90
68813;DHT22;55808;48.112;11.552;2023-04-16T08:52:58;7.10;99.90
68813;DHT22;55808;48.112;11.552;2023-04-16T08:55:33;7.30;99.90
68813;DHT22;55808;48.112;11.552;2023-04-16T08:58:00;7.30;99.90
68813;DHT22;55808;48.112;11.552;2023-04-16T09:00:25;7.50;99.90
68813;DHT22;55808;48.112;11.552;2023-04-16T09:02:52;7.40;99.90
68813;DHT22;55808;48.112;11.552;2023-04-16T09:05:18;7.50;99.90
68813;DHT22;55808;48.112;11.552;2023-04-16T09:07:47;7.50;99.90
68813;DHT22;55808;48.112;11.552;2023-04-16T09:10:15;7.50;99.90
68813;DHT22;55808;48.112;11.552;2023-04-16T09:12:41;7.60;99.90
68813;DHT22;55808;48.112;11.552;2023-04-16T09:15:08;7.50;99.90
68813;DHT22;55808;48.112;11.552;2023-04-16T09:17:34;7.60;99.90
68813;DHT22;55808;48.112;11.552;2023-04-16T09:20:00;7.50;99.90
68813;DHT22;55808;48.112;11.552;2023-04-16T09:22:25;7.60;99.90
68813;DHT22;55808;48.112;11.552;2023-04-16T09:24:51;7.70;99.90
68813;DHT22;55808;48.112;11.552;2023-04-16T09:27:16;7.80;99.90
68813;DHT22;55808;48.112;11.552;2023-04-16T09:29:42;7.90;99.90
68813;DHT22;55808;48.112;11.552;2023-04-16T09:32:08;8.00;99.90
68813;DHT22;55808;48.112;11.552;2023-04-16T09:34:34;8.10;99.90
68813;DHT22;55808;48.112;11.552;2023-04-16T09:37:16;8.20;99.90
68813;DHT22;55808;48.112;11.552;2023-04-16T09:39:42;8.20;99.90
68813;DHT22;55808;48.112;11.552;2023-04-16T09:42:08;8.20;99.90
68813;DHT22;55808;48.112;11.552;2023-04-16T09:44:37;8.20;99.90
68813;DHT22;55808;48.112;11.552;2023-04-16T09:47:06;8.40;99.90
68813;DHT22;55808;48.112;11.552;2023-04-16T09:49:40;8.30;99.90
68813;DHT22;55808;48.112;11.552;2023-04-16T09:52:15;8.30;99.90
68813;DHT22;55808;48.112;11.552;2023-04-16T09:54:48;8.20;99.90
68813;DHT22;55808;48.112;11.552;2023-04-16T09:57:19;8.30;99.90
68813;DHT22;55808;48.112;11.552;2023-04-16T09:59:48;8.30;99.90
68813;DHT22;55808;48.112;11.552;2023-04-16T10:02:16;8.30;99.90
68813;DHT22;55808;48.112;11.552;2023-04-16T10:04:45;8.20;99.90
68813;DHT22;55808;48.112;11.552;2023-04-16T10:07:11;8.20;99.90
68813;DHT22;55808;48.112;11.552;2023-04-16T10:09:38;8.40;99.90
68813;DHT22;55808;48.112;11.552;2023-04-16T10:12:04;8.50;99.90
68813;DHT22;55808;48.112;11.552;2023-04-16T10:14:32;8.50;99.90
68813;DHT22;55808;48.112;11.552;2023-04-16T10:16:58;8.50;99.90
68813;DHT22;55808;48.112;11.552;2023-04-16T10:19:24;8.50;99.90
68813;DHT22;55808;48.112;11.552;2023-04-16T10:21:50;8.60;99.90
68813;DHT22;55808;48.112;11.552;2023-04-16T10:24:16;8.60;99.90
68813;DHT22;55808;48.112;11.552;2023-04-16T10:26:42;8.60;99.90
68813;DHT22;55808;48.112;11.552;2023-04-16T10:29:08;8.60;99.90
68813;DHT22;55808;48.112;11.552;2023-04-16T10:31:35;8.40;99.90
68813;DHT22;55808;48.112;11.552;2023-04-16T10:34:02;8.30;99.90
68813;DHT22;55808;48.112;11.552;2023-04-16T10:36:27;8.20;99.90
68813;DHT22;55808;48.112;11.552;2023-04-16T10:38:57;8.10;99.90
68813;DHT22;55808;48.112;11.552;2023-04-16T10:41:24;8.10;99.90
68813;DHT22;55808;48.112;11.552;2023-04-16T10:43:50;8.10;99.90
68813;DHT22;55808;48.112;11.552;2023-04-16T10:46:16;8.20;99.90
68813;DHT22;55808;48.112;11.552;2023-04-16T10:48:45;8.40;99.90
68813;DHT22;55808;48.112;11.552;2023-04-16T10:51:22;8.50;99.90
68813;DHT22;55808;48.112;11.552;2023-04-16T10:53:48;8.70;99.90
68813;DHT22;55808;48.112;11.552;2023-04-16T10:56:13;8.70;99.90
68813;DHT22;55808;48.112;11.552;2023-04-16T10:58:39;8.60;99.90
68813;DHT22;55808;48.112;11.552;2023-04-16T11:01:12;8.60;99.90
68813;DHT22;55808;48.112;11.552;2023-04-16T11:03:47;8.50;99.90
68813;DHT22;55808;48.112;11.552;2023-04-16T11:06:13;8.40;99.90
68813;DHT22;55808;48.112;11.552;2023-04-16T11:08:40;8.30;99.90
68813;DHT22;55808;48.112;11.552;2023-04-16T11:11:08;8.10;99.90
68813;DHT22;55808;48.112;11.552;2023-04-16T11:13:35;8.10;99.90
68813;DHT22;55808;48.112;11.552;2023-04-16T11:16:01;8.10;99.90
68813;DHT22;55808;48.112;11.552;2023-04-16T11:18:28;8.10;99.90
68813;DHT22;55808;48.112;11.552;2023-04-16T11:20:54;8.20;99.90
68813;DHT22;55808;48.112;11.552;2023-04-16T11:23:20;8.20;99.90
68813;DHT22;55808;48.112;11.552;2023-04-16T11:25:45;8.10;99.90
68813;DHT22;55808;48.112;11.552;2023-04-16T11:28:11;8.00;99.90
68813;DHT22;55808;48.112;11.552;2023-04-16T11:30:37;8.00;99.90
68813;DHT22;55808;48.112;11.552;2023-04-16T11:33:11;8.10;99.90
68813;DHT22;55808;48.112;11.552;2023-04-16T11:35:37;8.20;99.90
68813;DHT22;55808;48.112;11.552;2023-04-16T11:38:07;8.30;99.90
68813;DHT22;55808;48.112;11.552;2023-04-16T11:40:33;8.20;99.90
68813;DHT22;55808;48.112;11.552;2023-04-16T11:43:16;8.30;99.90
68813;DHT22;55808;48.112;11.552;2023-04-16T11:46:01;8.30;99.90
68813;DHT22;55808;48.112;11.552;2023-04-16T11:48:48;8.30;99.90
68813;DHT22;55808;48.112;11.552;2023-04-16T11:51:15;8.40;99.90
68813;DHT22;55808;48.112;11.552;2023-04-16T11:53:59;8.50;99.90
68813;DHT22;55808;48.112;11.552;2023-04-16T11:56:26;8.50;99.90
68813;DHT22;55808;48.112;11.552;2023-04-16T12:01:38;8.60;99.90
68813;DHT22;55808;48.112;11.552;2023-04-16T12:04:04;8.60;99.90
68813;DHT22;55808;48.112;11.552;2023-04-16T12:06:30;8.70;99.90
68813;DHT22;55808;48.112;11.552;2023-04-16T12:08:57;8.80;99.90
68813;DHT22;55808;48.112;11.552;2023-04-16T12:11:36;8.80;99.90
68813;DHT22;55808;48.112;11.552;2023-04-16T12:14:06;8.70;99.90
68813;DHT22;55808;48.112;11.552;2023-04-16T12:16:31;8.70;99.90
68813;DHT22;55808;48.112;11.552;2023-04-16T12:19:00;8.60;99.90
68813;DHT22;55808;48.112;11.552;2023-04-16T12:21:44;8.70;99.90
68813;DHT22;55808;48.112;11.552;2023-04-16T12:24:11;8.60;99.90
68813;DHT22;55808;48.112;11.552;2023-04-16T12:26:40;8.70;99.90
68813;DHT22;55808;48.112;11.552;2023-04-16T12:29:19;8.60;99.90
68813;DHT22;55808;48.112;11.552;2023-04-16T12:31:46;8.70;99.90
68813;DHT22;55808;48.112;11.552;2023-04-16T12:34:12;8.70;99.90
68813;DHT22;55808;48.112;11.552;2023-04-16T12:36:39;8.70;99.90
68813;DHT22;55808;48.112;11.552;2023-04-16T12:39:05;8.80;99.90
68813;DHT22;55808;48.112;11.552;2023-04-16T12:41:31;8.90;99.90
68813;DHT22;55808;48.112;11.552;2023-04-16T12:44:30;8.90;99.90
68813;DHT22;55808;48.112;11.552;2023-04-16T12:46:50;8.80;99.90
68813;DHT22;55808;48.112;11.552;2023-04-16T12:49:16;8.80;99.90
68813;DHT22;55808;48.112;11.552;2023-04-16T12:51:41;8.90;99.90
68813;DHT22;55808;48.112;11.552;2023-04-16T12:54:07;8.90;99.90
68813;DHT22;55808;48.112;11.552;2023-04-16T12:56:32;8.90;99.90
68813;DHT22;55808;48.112;11.552;2023-04-16T12:58:58;8.80;99.90
68813;DHT22;55808;48.112;11.552;2023-04-16T13:01:23;8.80;99.90
68813;DHT22;55808;48.112;11.552;2023-04-16T13:03:49;8.70;99.90
68813;DHT22;55808;48.112;11.552;2023-04-16T13:06:15;8.60;99.90
68813;DHT22;55808;48.112;11.552;2023-04-16T13:08:41;8.50;99.90
68813;DHT22;55808;48.112;11.552;2023-04-16T13:11:07;8.70;99.90
68813;DHT22;55808;48.112;11.552;2023-04-16T13:13:33;8.30;99.90
68813;DHT22;55808;48.112;11.552;2023-04-16T13:15:58;8.20;99.90
68813;DHT22;55808;48.112;11.552;2023-04-16T13:18:24;8.20;99.90
68813;DHT22;55808;48.112;11.552;2023-04-16T13:20:50;8.20;99.90
68813;DHT22;55808;48.112;11.552;2023-04-16T13:23:16;8.20;99.90
68813;DHT22;55808;48.112;11.552;2023-04-16T13:25:42;8.10;99.90
68813;DHT22;55808;48.112;11.552;2023-04-16T13:28:07;8.10;99.90
68813;DHT22;55808;48.112;11.552;2023-04-16T13:30:33;8.10;99.90
68813;DHT22;55808;48.112;11.552;2023-04-16T13:32:58;8.20;99.90
68813;DHT22;55808;48.112;11.552;2023-04-16T13:35:24;8.20;99.90
68813;DHT22;55808;48.112;11.552;2023-04-16T13:37:50;8.30;99.90
68813;DHT22;55808;48.112;11.552;2023-04-16T13:40:16;8.40;99.90
68813;DHT22;55808;48.112;11.552;2023-04-16T13:42:41;8.30;99.90
68813;DHT22;55808;48.112;11.552;2023-04-16T13:45:07;8.40;99.90
68813;DHT22;55808;48.112;11.552;2023-04-16T13:47:34;8.50;99.90
68813;DHT22;55808;48.112;11.552;2023-04-16T13:49:59;7.70;99.90
68813;DHT22;55808;48.112;11.552;2023-04-16T13:52:25;8.60;99.90
68813;DHT22;55808;48.112;11.552;2023-04-16T13:54:50;8.60;99.90
68813;DHT22;55808;48.112;11.552;2023-04-16T13:57:16;8.60;99.90
68813;DHT22;55808;48.112;11.552;2023-04-16T13:59:42;8.70;99.90
68813;DHT22;55808;48.112;11.552;2023-04-16T14:02:08;8.70;99.90
68813;DHT22;55808;48.112;11.552;2023-04-16T14:04:34;8.70;99.90
68813;DHT22;55808;48.112;11.552;2023-04-16T14:06:59;8.70;99.90
68813;DHT22;55808;48.112;11.552;2023-04-16T14:09:25;8.70;99.90
68813;DHT22;55808;48.112;11.552;2023-04-16T14:11:51;8.70;99.90
68813;DHT22;55808;48.112;11.552;2023-04-16T14:14:17;8.70;99.90
68813;DHT22;55808;48.112;11.552;2023-04-16T14:16:42;8.70;99.90
68813;DHT22;55808;48.112;11.552;2023-04-16T14:19:08;8.60;99.90
68813;DHT22;55808;48.112;11.552;2023-04-16T14:21:33;8.70;99.90
68813;DHT22;55808;48.112;11.552;2023-04-16T14:23:59;8.60;99.90
68813;DHT22;55808;48.112;11.552;2023-04-16T14:26:24;8.60;99.90
68813;DHT22;55808;48.112;11.552;2023-04-16T14:28:50;8.60;99.90
68813;DHT22;55808;48.112;11.552;2023-04-16T14:31:15;8.60;99.90
68813;DHT22;55808;48.112;11.552;2023-04-16T14:33:42;8.50;99.90
68813;DHT22;55808;48.112;11.552;2023-04-16T14:36:08;8.60;99.90
68813;DHT22;55808;48.112;11.552;2023-04-16T14:38:34;8.60;99.90
68813;DHT22;55808;48.112;11.552;2023-04-16T14:40:59;8.60;99.90
68813;DHT22;55808;48.112;11.552;2023-04-16T14:43:25;8.60;99.90
68813;DHT22;55808;48.112;11.552;2023-04-16T14:45:51;8.50;99.90
68813;DHT22;55808;48.112;11.552;2023-04-16T14:48:17;8.40;99.90
68813;DHT22;55808;48.112;11.552;2023-04-16T14:50:43;8.50;99.90
68813;DHT22;55808;48.112;11.552;2023-04-16T14:53:09;8.50;99.90
68813;DHT22;55808;48.112;11.552;2023-04-16T14:55:35;8.50;99.90
68813;DHT22;55808;48.112;11.552;2023-04-16T14:58:00;8.50;99.90
68813;DHT22;55808;48.112;11.552;2023-04-16T15:00:26;8.60;99.90
68813;DHT22;55808;48.112;11.552;2023-04-16T15:02:52;8.60;99.90
68813;DHT22;55808;48.112;11.552;2023-04-16T15:05:17;8.60;99.90
68813;DHT22;55808;48.112;11.552;2023-04-16T15:07:43;8.50;99.90
68813;DHT22;55808;48.112;11.552;2023-04-16T15:10:08;8.70;99.90
68813;DHT22;55808;48.112;11.552;2023-04-16T15:12:35;8.60;99.90
68813;DHT22;55808;48.112;11.552;2023-04-16T15:15:01;8.60;99.90
68813;DHT22;55808;48.112;11.552;2023-04-16T15:17:27;8.60;99.90
68813;DHT22;55808;48.112;11.552;2023-04-16T15:19:52;8.60;99.90
68813;DHT22;55808;48.112;11.552;2023-04-16T15:22:18;8.60;99.90
68813;DHT22;55808;48.112;11.552;2023-04-16T15:24:43;8.60;99.90
68813;DHT22;55808;48.112;11.552;2023-04-16T15:27:09;8.60;99.90